createdAt,value
2024-04-30T00:02:02.653Z,101570.16
2024-04-30T00:06:55.757Z,101568.38
2024-04-30T00:11:48.481Z,101565.44
2024-04-30T00:16:42.603Z,101567.21
2024-04-30T00:21:43.008Z,101565.46
2024-04-30T00:26:36.576Z,101573.79
2024-04-30T00:31:29.246Z,101571.49
2024-04-30T00:36:22.852Z,101568.98
2024-04-30T00:41:15.845Z,101569.30
2024-04-30T00:46:09.380Z,101573.10
2024-04-30T00:51:05.027Z,101573.73
2024-04-30T00:55:57.757Z,101578.05
2024-04-30T01:00:50.400Z,101580.45
2024-04-30T01:05:43.631Z,101585.24
2024-04-30T01:10:36.441Z,101586.39
2024-04-30T01:15:29.333Z,101587.23
2024-04-30T01:20:21.904Z,101583.75
2024-04-30T01:25:14.559Z,101580.10
2024-04-30T01:30:08.501Z,101579.95
2024-04-30T01:35:01.122Z,101576.86
2024-04-30T01:39:54.011Z,101579.87
2024-04-30T01:44:46.591Z,101581.73
2024-04-30T01:49:39.259Z,101574.64
2024-04-30T01:54:31.828Z,101567.73
2024-04-30T01:59:24.451Z,101566.27
2024-04-30T02:04:17.069Z,101561.52
2024-04-30T02:09:10.499Z,101557.39
2024-04-30T02:14:03.092Z,101559.01
2024-04-30T02:18:55.639Z,101555.61
2024-04-30T02:23:48.666Z,101556.72
2024-04-30T02:28:41.307Z,101557.31
2024-04-30T02:33:51.586Z,101563.83
2024-04-30T02:38:44.167Z,101564.04
2024-04-30T02:43:37.252Z,101560.06
2024-04-30T02:48:29.883Z,101562.02
2024-04-30T02:53:22.511Z,101556.27
2024-04-30T02:58:15.095Z,101551.23
2024-04-30T03:03:07.728Z,101556.19
2024-04-30T03:08:00.338Z,101556.61
2024-04-30T03:12:53.021Z,101558.63
2024-04-30T03:17:47.903Z,101559.73
2024-04-30T03:22:41.972Z,101559.38
2024-04-30T03:27:35.235Z,101559.98
2024-04-30T03:32:27.868Z,101560.10
2024-04-30T03:37:20.684Z,101562.98
2024-04-30T03:42:13.456Z,101561.92
2024-04-30T03:47:06.200Z,101564.31
2024-04-30T03:51:58.788Z,101563.10
2024-04-30T03:56:51.357Z,101565.48
2024-04-30T04:01:43.972Z,101569.67
2024-04-30T04:06:36.636Z,101574.81
2024-04-30T04:11:46.629Z,101578.47
2024-04-30T04:16:39.315Z,101576.55
2024-04-30T04:21:32.938Z,101579.98
2024-04-30T04:26:25.531Z,101581.08
2024-04-30T04:31:18.272Z,101584.28
2024-04-30T04:36:15.620Z,101581.02
2024-04-30T04:41:08.170Z,101582.13
2024-04-30T04:46:01.449Z,101585.88
2024-04-30T04:50:54.243Z,101585.13
2024-04-30T04:55:46.948Z,101580.97
2024-04-30T05:00:39.543Z,101575.63
2024-04-30T05:05:32.153Z,101581.73
2024-04-30T05:10:24.791Z,101580.68
2024-04-30T05:15:17.490Z,101578.59
2024-04-30T05:20:10.499Z,101581.02
2024-04-30T05:25:03.111Z,101573.91
2024-04-30T05:29:57.816Z,101574.36
2024-04-30T05:34:50.870Z,101576.70
2024-04-30T05:39:43.442Z,101576.98
2024-04-30T05:44:36.024Z,101578.29
2024-04-30T05:49:28.735Z,101576.31
2024-04-30T05:54:21.640Z,101578.16
2024-04-30T05:59:14.898Z,101573.69
2024-04-30T06:04:07.633Z,101571.23
2024-04-30T06:09:01.156Z,101569.45
2024-04-30T06:13:53.857Z,101571.49
2024-04-30T06:18:46.490Z,101566.82
2024-04-30T06:23:39.139Z,101566.27
2024-04-30T06:28:34.181Z,101556.77
2024-04-30T06:33:27.534Z,101555.00
2024-04-30T06:38:20.164Z,101556.61
2024-04-30T06:43:12.814Z,101557.45
2024-04-30T06:48:06.582Z,101552.95
2024-04-30T06:52:59.366Z,101551.84
2024-04-30T06:57:51.934Z,101549.90
2024-04-30T07:02:44.652Z,101561.02
2024-04-30T07:07:37.386Z,101562.85
2024-04-30T07:12:30.016Z,101564.72
2024-04-30T07:17:22.949Z,101558.06
2024-04-30T07:22:17.249Z,101558.02
2024-04-30T07:27:09.918Z,101556.98
2024-04-30T07:32:02.565Z,101554.58
2024-04-30T07:36:55.207Z,101542.52
2024-04-30T07:41:47.768Z,101541.77
2024-04-30T07:46:40.360Z,101542.70
2024-04-30T07:51:32.981Z,101548.52
2024-04-30T07:56:25.559Z,101545.07
2024-04-30T08:01:18.423Z,101542.52
2024-04-30T08:06:18.550Z,101549.78
2024-04-30T08:11:13.483Z,101548.11
2024-04-30T08:16:06.633Z,101545.77
2024-04-30T08:20:59.335Z,101546.81
2024-04-30T08:25:51.897Z,101549.52
2024-04-30T08:30:44.646Z,101547.11
2024-04-30T08:35:37.554Z,101543.79
2024-04-30T08:40:33.400Z,101541.75
2024-04-30T08:45:28.329Z,101539.59
2024-04-30T08:50:26.442Z,101536.46
2024-04-30T08:55:20.673Z,101536.09
2024-04-30T09:06:07.439Z,101539.95
2024-04-30T09:11:00.119Z,101534.48
2024-04-30T09:16:02.279Z,101525.98
2024-04-30T09:20:57.151Z,101522.43
2024-04-30T09:25:50.209Z,101512.20
2024-04-30T09:30:43.964Z,101508.65
2024-04-30T09:35:37.092Z,101509.08
2024-04-30T09:40:31.209Z,101495.48
2024-04-30T09:45:24.860Z,101492.46
2024-04-30T09:50:18.470Z,101490.61
2024-04-30T09:55:12.156Z,101483.56
2024-04-30T10:00:05.030Z,101476.23
2024-04-30T10:05:05.950Z,101467.63
2024-04-30T10:09:58.618Z,101460.79
2024-04-30T10:14:51.402Z,101458.74
2024-04-30T10:19:46.684Z,101450.16
2024-04-30T10:24:42.128Z,101447.70
2024-04-30T10:29:34.844Z,101446.56
2024-04-30T10:34:27.430Z,101441.95
2024-04-30T10:39:27.486Z,101442.71
2024-04-30T10:44:20.128Z,101439.07
2024-04-30T10:49:13.389Z,101431.11
2024-04-30T10:54:06.417Z,101427.92
2024-04-30T10:59:00.250Z,101427.75
2024-04-30T11:03:53.998Z,101423.69
2024-04-30T11:08:47.561Z,101424.25
2024-04-30T11:13:40.267Z,101419.23
2024-04-30T11:18:34.584Z,101411.23
2024-04-30T11:23:27.872Z,101408.04
2024-04-30T11:28:20.510Z,101399.77
2024-04-30T11:33:13.185Z,101397.86
2024-04-30T11:38:06.463Z,101398.43
2024-04-30T11:42:59.126Z,101389.99
2024-04-30T11:47:52.481Z,101393.56
2024-04-30T11:52:45.352Z,101380.16
2024-04-30T11:57:38.111Z,101378.33
2024-04-30T12:02:30.818Z,101375.94
2024-04-30T12:07:23.632Z,101375.05
2024-04-30T12:12:17.095Z,101375.73
2024-04-30T12:17:09.740Z,101369.83
2024-04-30T12:22:02.346Z,101365.52
2024-04-30T12:26:55.824Z,101355.00
2024-04-30T12:31:48.417Z,101352.24
2024-04-30T12:36:43.316Z,101343.85
2024-04-30T12:41:42.156Z,101338.96
2024-04-30T12:46:34.842Z,101322.40
2024-04-30T12:51:27.574Z,101313.80
2024-04-30T12:56:20.787Z,101312.41
2024-04-30T13:01:17.962Z,101313.36
2024-04-30T13:06:12.919Z,101297.77
2024-04-30T13:11:06.085Z,101292.38
2024-04-30T13:15:58.792Z,101281.57
2024-04-30T13:20:51.446Z,101279.51
2024-04-30T13:25:44.168Z,101273.57
2024-04-30T13:30:38.912Z,101275.70
2024-04-30T13:35:31.641Z,101263.45
2024-04-30T13:40:24.400Z,101260.16
2024-04-30T13:45:17.261Z,101252.36
2024-04-30T13:50:11.654Z,101252.54
2024-04-30T13:55:04.946Z,101251.98
2024-04-30T13:59:57.571Z,101237.17
2024-04-30T14:04:50.793Z,101234.53
2024-04-30T14:09:43.495Z,101238.71
2024-04-30T14:14:37.660Z,101234.36
2024-04-30T14:19:33.005Z,101227.70
2024-04-30T14:24:27.245Z,101229.77
2024-04-30T14:29:21.282Z,101225.30
2024-04-30T14:34:14.073Z,101221.52
2024-04-30T14:39:10.303Z,101221.54
2024-04-30T14:44:03.639Z,101221.30
2024-04-30T14:48:56.595Z,101214.70
2024-04-30T14:53:49.297Z,101211.33
2024-04-30T14:58:42.516Z,101206.64
2024-04-30T15:03:35.950Z,101201.35
2024-04-30T15:08:28.618Z,101196.80
2024-04-30T15:13:21.231Z,101198.08
2024-04-30T15:18:15.091Z,101191.52
2024-04-30T15:23:09.264Z,101188.29
2024-04-30T15:28:02.122Z,101187.85
2024-04-30T15:32:55.325Z,101183.21
2024-04-30T15:37:48.031Z,101179.52
2024-04-30T15:42:40.916Z,101176.73
2024-04-30T15:47:33.562Z,101173.09
2024-04-30T15:52:26.237Z,101170.21
2024-04-30T15:57:18.864Z,101170.81
2024-04-30T16:02:11.448Z,101166.42
2024-04-30T16:07:04.134Z,101163.94
2024-04-30T16:11:57.807Z,101163.77
2024-04-30T16:16:50.780Z,101161.95
2024-04-30T16:21:43.904Z,101156.59
2024-04-30T16:26:36.485Z,101147.58
2024-04-30T16:36:26.663Z,101150.92
2024-04-30T16:41:19.477Z,101151.29
2024-04-30T16:46:12.520Z,101154.77
2024-04-30T16:51:13.556Z,101156.46
2024-04-30T16:56:07.011Z,101158.70
2024-04-30T17:00:59.810Z,101154.89
2024-04-30T17:05:52.618Z,101148.77
2024-04-30T17:10:45.383Z,101151.80
2024-04-30T17:15:39.176Z,101150.89
2024-04-30T17:20:31.828Z,101157.88
2024-04-30T17:25:24.417Z,101155.19
2024-04-30T17:30:17.104Z,101156.69
2024-04-30T17:35:09.788Z,101157.15
2024-04-30T17:40:02.958Z,101155.12
2024-04-30T17:44:55.649Z,101160.38
2024-04-30T17:49:48.329Z,101155.03
2024-04-30T17:54:40.932Z,101152.23
2024-04-30T17:59:33.590Z,101157.77
2024-04-30T18:04:26.239Z,101165.38
2024-04-30T18:09:18.962Z,101165.98
2024-04-30T18:14:11.681Z,101165.70
2024-04-30T18:19:04.273Z,101166.29
2024-04-30T18:23:57.529Z,101166.64
2024-04-30T18:28:55.783Z,101162.76
2024-04-30T18:33:50.465Z,101164.80
2024-04-30T18:38:44.550Z,101174.73
2024-04-30T18:43:39.660Z,101180.55
2024-04-30T18:48:32.368Z,101183.59
2024-04-30T18:53:25.024Z,101188.58
2024-04-30T18:58:17.627Z,101187.39
2024-04-30T19:03:11.945Z,101187.68
2024-04-30T19:08:04.698Z,101185.35
2024-04-30T19:12:58.374Z,101182.50
2024-04-30T19:17:51.331Z,101179.97
2024-04-30T19:22:44.107Z,101181.11
2024-04-30T19:27:37.082Z,101177.52
2024-04-30T19:32:30.197Z,101181.30
2024-04-30T19:37:22.768Z,101178.91
2024-04-30T19:42:15.383Z,101174.76
2024-04-30T19:47:08.647Z,101175.52
2024-04-30T19:52:01.384Z,101176.10
2024-04-30T19:56:54.010Z,101171.05
2024-04-30T20:01:46.887Z,101168.45
2024-04-30T20:06:43.813Z,101168.13
2024-04-30T20:11:38.590Z,101167.27
2024-04-30T20:16:31.929Z,101166.25
2024-04-30T20:21:26.252Z,101170.29
2024-04-30T20:26:18.963Z,101174.67
2024-04-30T20:31:11.610Z,101175.92
2024-04-30T20:36:04.364Z,101172.79
2024-04-30T20:40:56.968Z,101177.69
2024-04-30T20:45:49.681Z,101179.60
2024-04-30T20:50:43.542Z,101181.70
2024-04-30T20:55:36.199Z,101177.34
2024-04-30T21:00:28.925Z,101176.11
2024-04-30T21:05:21.755Z,101181.18
2024-04-30T21:10:14.414Z,101181.00
2024-04-30T21:15:07.706Z,101179.94
2024-04-30T21:20:00.613Z,101177.64
2024-04-30T21:24:53.219Z,101183.22
2024-04-30T21:29:46.106Z,101185.81
2024-04-30T21:34:38.945Z,101185.91
2024-04-30T21:39:31.755Z,101182.20
2024-04-30T21:44:24.351Z,101181.45
2024-04-30T21:49:17.272Z,101184.55
2024-04-30T21:54:10.796Z,101179.58
2024-04-30T21:59:03.680Z,101175.16
2024-04-30T22:03:56.338Z,101166.90
2024-04-30T22:08:48.950Z,101164.91
2024-04-30T22:13:41.632Z,101158.70
2024-04-30T22:18:36.466Z,101154.58
2024-04-30T22:23:33.710Z,101150.63
2024-04-30T22:28:26.663Z,101148.65
2024-04-30T22:33:20.089Z,101142.97
2024-04-30T22:38:12.773Z,101141.49
2024-04-30T22:43:05.610Z,101140.39
2024-04-30T22:48:02.389Z,101140.13
2024-04-30T22:52:55.750Z,101134.63
2024-04-30T22:57:48.359Z,101130.37
2024-04-30T23:02:41.007Z,101130.84
2024-04-30T23:07:35.746Z,101131.99
2024-04-30T23:12:29.102Z,101130.12
2024-04-30T23:17:25.641Z,101124.80
2024-04-30T23:22:18.731Z,101123.82
2024-04-30T23:27:11.387Z,101119.20
2024-04-30T23:32:04.248Z,101113.52
2024-04-30T23:36:57.037Z,101113.07
2024-04-30T23:41:50.046Z,101110.86
2024-04-30T23:46:42.730Z,101114.91
2024-04-30T23:51:35.284Z,101114.45
2024-04-30T23:56:27.847Z,101106.33
